Time,TemperatureF,DewpointF,PressureIn,WindDirection,WindDirectionDegrees,WindSpeedMPH,WindSpeedGustMPH,Humidity,HourlyPrecipIn,Conditions,Clouds,dailyrainin,SoftwareType,DateUTC
2013-04-23 00:02:00,31.0,27.0,30.29,NNW,340,8.0,14.0,85,0.00,,,0.84,,2013-04-23 05:02:00,
2013-04-23 00:12:00,31.0,27.0,30.29,NNW,340,8.0,14.0,85,0.00,,,0.84,,2013-04-23 05:12:00,
2013-04-23 00:22:00,31.0,27.0,30.26,North,11,10.0,21.0,84,0.00,,,0.84,,2013-04-23 05:22:00,
2013-04-23 00:32:00,31.0,27.0,30.24,NNE,20,14.0,24.0,84,0.00,,,0.84,,2013-04-23 05:32:00,
2013-04-23 00:42:00,31.0,27.0,30.24,NNE,20,14.0,24.0,84,0.00,,,0.84,,2013-04-23 05:42:00,
2013-04-23 00:52:00,31.0,27.0,30.24,North,10,9.0,19.0,84,0.00,,,0.84,,2013-04-23 05:52:00,
2013-04-23 01:01:00,31.0,27.0,30.27,North,355,8.0,22.0,85,0.00,,,0.77,,2013-04-23 06:01:00,
2013-04-23 01:12:00,31.0,27.0,30.27,North,355,8.0,22.0,85,0.00,,,0.77,,2013-04-23 06:12:00,
2013-04-23 01:21:00,31.0,27.0,30.29,NW,311,10.0,17.0,85,0.00,,,0.77,,2013-04-23 06:21:00,
2013-04-23 01:33:00,30.0,26.0,30.27,NW,325,11.0,24.0,84,0.00,,,0.77,,2013-04-23 06:33:00,
2013-04-23 01:42:00,30.0,26.0,30.27,NW,325,11.0,24.0,84,0.00,,,0.77,,2013-04-23 06:42:00,
2013-04-23 01:52:00,30.0,26.0,30.24,NNE,29,11.0,20.0,84,0.00,,,0.77,,2013-04-23 06:52:00,
2013-04-23 02:02:00,30.0,26.0,30.24,NNW,340,10.0,20.0,84,0.00,,,0.77,,2013-04-23 07:02:00,
2013-04-23 02:11:00,30.0,26.0,30.24,NNW,340,10.0,20.0,84,0.00,,,0.77,,2013-04-23 07:11:00,
2013-04-23 02:21:00,30.0,26.0,30.31,NNW,329,10.0,21.0,84,0.00,,,0.77,,2013-04-23 07:21:00,
2013-04-23 02:32:00,30.0,26.0,30.33,North,350,8.0,16.0,84,0.00,,,0.77,,2013-04-23 07:32:00,
2013-04-23 02:42:00,30.0,26.0,30.33,North,350,8.0,16.0,84,0.00,,,0.77,,2013-04-23 07:42:00,
2013-04-23 02:52:00,30.0,25.0,30.31,NNE,24,8.0,15.0,83,0.00,,,0.77,,2013-04-23 07:52:00,
2013-04-23 03:02:00,30.0,26.0,30.31,NNE,13,7.0,17.0,84,0.00,,,0.77,,2013-04-23 08:02:00,
2013-04-23 03:11:00,30.0,26.0,30.31,NNE,13,7.0,17.0,84,0.00,,,0.77,,2013-04-23 08:11:00,
2013-04-23 03:21:00,30.0,25.0,30.29,NNE,25,9.0,14.0,83,0.00,,,0.77,,2013-04-23 08:21:00,
2013-04-23 03:31:00,30.0,25.0,30.28,North,5,7.0,15.0,83,0.00,,,0.77,,2013-04-23 08:31:00,
2013-04-23 03:42:00,30.0,25.0,30.28,North,5,7.0,15.0,83,0.00,,,0.77,,2013-04-23 08:42:00,
2013-04-23 03:52:00,30.0,26.0,30.30,North,5,9.0,18.0,84,0.00,,,0.77,,2013-04-23 08:52:00,
2013-04-23 04:01:00,30.0,26.0,30.29,NNW,346,8.0,15.0,84,0.00,,,0.77,,2013-04-23 09:01:00,
2013-04-23 04:11:00,30.0,26.0,30.29,NNW,346,8.0,15.0,84,0.00,,,0.77,,2013-04-23 09:11:00,
2013-04-23 04:21:00,30.0,26.0,30.28,NNW,330,8.0,16.0,84,0.00,,,0.77,,2013-04-23 09:21:00,
2013-04-23 04:33:00,30.0,26.0,30.26,NNW,330,8.0,18.0,85,0.00,,,0.77,,2013-04-23 09:33:00,
2013-04-23 04:43:00,30.0,26.0,30.26,NNW,330,8.0,18.0,85,0.00,,,0.77,,2013-04-23 09:43:00,
2013-04-23 04:53:00,30.0,26.0,30.25,NNE,18,9.0,18.0,85,0.00,,,0.77,,2013-04-23 09:53:00,
2013-04-23 05:02:00,30.0,26.0,30.24,NNW,344,10.0,20.0,86,0.00,,,0.77,,2013-04-23 10:02:00,
2013-04-23 05:13:00,30.0,26.0,30.24,NNW,344,10.0,20.0,86,0.00,,,0.77,,2013-04-23 10:13:00,
2013-04-23 05:22:00,30.0,27.0,30.25,NNW,343,8.0,21.0,87,0.00,,,0.77,,2013-04-23 10:22:00,
2013-04-23 05:33:00,30.0,27.0,30.24,NNE,13,8.0,21.0,87,0.00,,,0.77,,2013-04-23 10:33:00,
2013-04-23 05:42:00,30.0,27.0,30.24,NNE,13,8.0,21.0,87,0.00,,,0.77,,2013-04-23 10:42:00,
2013-04-23 05:52:00,29.0,24.0,30.26,North,355,10.0,19.0,81,0.00,,,0.77,,2013-04-23 10:52:00,
2013-04-23 06:02:00,29.0,24.0,30.27,North,355,11.0,19.0,81,0.00,,,0.77,,2013-04-23 11:02:00,
2013-04-23 06:12:00,29.0,24.0,30.27,North,355,11.0,19.0,81,0.00,,,0.77,,2013-04-23 11:12:00,
2013-04-23 06:21:00,29.0,24.0,30.27,NW,312,10.0,17.0,80,0.00,,,0.77,,2013-04-23 11:21:00,
2013-04-23 06:32:00,29.0,24.0,30.26,NW,309,7.0,17.0,82,0.00,,,0.77,,2013-04-23 11:32:00,
2013-04-23 06:42:00,29.0,24.0,30.26,NW,309,7.0,17.0,82,0.00,,,0.77,,2013-04-23 11:42:00,
2013-04-23 06:53:00,29.0,24.0,30.27,North,10,10.0,19.0,82,0.00,,,0.77,,2013-04-23 11:53:00,
2013-04-23 07:02:00,29.0,25.0,30.27,NNW,346,9.0,13.0,83,0.00,,,0.72,,2013-04-23 12:02:00,
2013-04-23 07:12:00,29.0,25.0,30.27,NNW,346,9.0,13.0,83,0.00,,,0.72,,2013-04-23 12:12:00,
2013-04-23 07:22:00,29.0,25.0,30.26,NNW,329,9.0,16.0,83,0.00,,,0.72,,2013-04-23 12:22:00,
2013-04-23 07:32:00,29.0,24.0,30.26,NW,312,8.0,18.0,80,0.00,,,0.72,,2013-04-23 12:32:00,
2013-04-23 07:41:00,29.0,24.0,30.26,NW,312,8.0,18.0,80,0.00,,,0.72,,2013-04-23 12:41:00,
2013-04-23 07:52:00,29.0,24.0,30.27,NNW,339,7.0,17.0,80,0.00,,,0.72,,2013-04-23 12:52:00,
2013-04-23 08:01:00,29.0,22.0,30.27,NNE,17,10.0,17.0,75,0.00,,,0.68,,2013-04-23 13:01:00,
2013-04-23 08:11:00,29.0,22.0,30.27,NNE,17,10.0,17.0,75,0.00,,,0.68,,2013-04-23 13:11:00,
2013-04-23 08:21:00,28.0,21.0,30.27,NNE,20,10.0,20.0,74,0.00,,,0.68,,2013-04-23 13:21:00,
2013-04-23 08:32:00,29.0,22.0,30.28,NNW,343,7.0,20.0,76,0.00,,,0.68,,2013-04-23 13:32:00,
2013-04-23 08:41:00,29.0,22.0,30.28,NNW,343,7.0,20.0,76,0.00,,,0.68,,2013-04-23 13:41:00,
2013-04-23 08:52:00,29.0,22.0,30.29,NW,322,8.0,18.0,75,0.00,,,0.68,,2013-04-23 13:52:00,
2013-04-23 09:01:00,29.0,22.0,30.29,NNW,330,10.0,18.0,74,0.00,,,0.68,,2013-04-23 14:01:00,
2013-04-23 09:11:00,29.0,22.0,30.29,NNW,330,10.0,18.0,74,0.00,,,0.68,,2013-04-23 14:11:00,
2013-04-23 09:22:00,29.0,22.0,30.30,North,350,8.0,18.0,75,0.00,,,0.68,,2013-04-23 14:22:00,
2013-04-23 09:32:00,28.0,20.0,30.30,NW,311,9.0,19.0,73,0.00,,,0.68,,2013-04-23 14:32:00,
2013-04-23 09:42:00,28.0,20.0,30.30,NW,311,9.0,19.0,73,0.00,,,0.68,,2013-04-23 14:42:00,
2013-04-23 09:52:00,28.0,20.0,30.29,NNW,331,10.0,19.0,73,0.00,,,0.68,,2013-04-23 14:52:00,
2013-04-23 10:01:00,28.0,20.0,30.29,NNW,331,10.0,19.0,73,0.00,,,0.68,,2013-04-23 15:01:00,
2013-04-23 10:12:00,28.0,21.0,30.29,North,355,7.0,16.0,74,0.00,,,0.68,,2013-04-23 15:12:00,
2013-04-23 10:21:00,29.0,22.0,30.29,North,350,7.0,15.0,74,0.00,,,0.68,,2013-04-23 15:21:00,
2013-04-23 10:32:00,29.0,20.0,30.29,NNW,333,10.0,19.0,70,0.00,,,0.68,,2013-04-23 15:32:00,
2013-04-23 10:42:00,29.0,20.0,30.29,NNW,333,10.0,19.0,70,0.00,,,0.68,,2013-04-23 15:42:00,
2013-04-23 10:53:00,29.0,21.0,30.29,North,9,8.0,15.0,71,0.00,,,0.68,,2013-04-23 15:53:00,
2013-04-23 11:03:00,29.0,20.0,30.30,NNE,23,10.0,17.0,69,0.00,,,0.68,,2013-04-23 16:03:00,
2013-04-23 11:12:00,29.0,20.0,30.30,NNE,23,10.0,17.0,69,0.00,,,0.68,,2013-04-23 16:12:00,
2013-04-23 11:23:00,29.0,21.0,30.31,North,355,5.0,17.0,72,0.00,,,0.68,,2013-04-23 16:23:00,
2013-04-23 11:34:00,29.0,20.0,30.30,North,351,9.0,19.0,70,0.00,,,0.68,,2013-04-23 16:34:00,
2013-04-23 11:43:00,29.0,20.0,30.30,North,351,9.0,19.0,70,0.00,,,0.68,,2013-04-23 16:43:00,
2013-04-23 11:53:00,29.0,20.0,30.30,NNW,348,8.0,18.0,70,0.00,,,0.68,,2013-04-23 16:53:00,
2013-04-23 12:02:00,29.0,20.0,30.30,NNW,342,10.0,18.0,70,0.00,,,0.68,,2013-04-23 17:02:00,
2013-04-23 12:11:00,29.0,20.0,30.30,NNW,342,10.0,18.0,70,0.00,,,0.68,,2013-04-23 17:11:00,
2013-04-23 12:22:00,30.0,21.0,30.30,NNW,333,7.0,17.0,70,0.00,,,0.68,,2013-04-23 17:22:00,
2013-04-23 12:32:00,31.0,22.0,30.30,NNW,331,5.0,14.0,70,0.00,,,0.68,,2013-04-23 17:32:00,
2013-04-23 12:42:00,31.0,22.0,30.30,NNW,331,5.0,14.0,70,0.00,,,0.68,,2013-04-23 17:42:00,
2013-04-23 12:53:00,31.0,22.0,30.31,North,350,8.0,16.0,69,0.00,,,0.68,,2013-04-23 17:53:00,
2013-04-23 13:02:00,31.0,22.0,30.30,NW,322,10.0,19.0,68,0.00,,,0.65,,2013-04-23 18:02:00,
2013-04-23 13:12:00,31.0,22.0,30.30,NW,322,10.0,19.0,68,0.00,,,0.65,,2013-04-23 18:12:00,
2013-04-23 13:22:00,32.0,23.0,30.30,North,9,9.0,18.0,68,0.00,,,0.65,,2013-04-23 18:22:00,
2013-04-23 13:32:00,32.0,22.0,30.29,NNW,333,9.0,16.0,67,0.00,,,0.65,,2013-04-23 18:32:00,
2013-04-23 13:42:00,32.0,22.0,30.29,NNW,333,9.0,16.0,67,0.00,,,0.65,,2013-04-23 18:42:00,
2013-04-23 13:52:00,33.0,23.0,30.28,NNW,331,9.0,14.0,66,0.00,,,0.65,,2013-04-23 18:52:00,
2013-04-23 14:02:00,33.0,22.0,30.28,WNW,299,10.0,17.0,64,0.00,,,0.41,,2013-04-23 19:02:00,
2013-04-23 14:11:00,33.0,22.0,30.28,WNW,299,10.0,17.0,64,0.00,,,0.41,,2013-04-23 19:11:00,
2013-04-23 14:22:00,34.0,24.0,30.28,NNW,339,9.0,15.0,66,0.00,,,0.41,,2013-04-23 19:22:00,
2013-04-23 14:32:00,35.0,24.0,30.28,NNW,339,9.0,15.0,64,0.00,,,0.41,,2013-04-23 19:32:00,
2013-04-23 14:42:00,35.0,24.0,30.28,NNW,339,9.0,15.0,64,0.00,,,0.41,,2013-04-23 19:42:00,
2013-04-23 14:52:00,34.0,23.0,30.27,NNW,330,10.0,17.0,64,0.00,,,0.41,,2013-04-23 19:52:00,
2013-04-23 15:01:00,35.0,23.0,30.26,NW,311,9.0,16.0,62,0.00,,,0.20,,2013-04-23 20:01:00,
2013-04-23 15:11:00,35.0,23.0,30.26,NW,311,9.0,16.0,62,0.00,,,0.20,,2013-04-23 20:11:00,
2013-04-23 15:22:00,35.0,23.0,30.26,NNE,13,9.0,17.0,62,0.00,,,0.20,,2013-04-23 20:22:00,
2013-04-23 15:32:00,36.0,23.0,30.27,NNW,346,8.0,20.0,59,0.00,,,0.20,,2013-04-23 20:32:00,
2013-04-23 15:42:00,36.0,23.0,30.27,NNW,346,8.0,20.0,59,0.00,,,0.20,,2013-04-23 20:42:00,
2013-04-23 15:52:00,36.0,23.0,30.26,North,349,10.0,17.0,60,0.00,,,0.20,,2013-04-23 20:52:00,
2013-04-23 16:01:00,36.0,23.0,30.26,NW,308,9.0,22.0,58,0.00,,,0.02,,2013-04-23 21:01:00,
2013-04-23 16:12:00,36.0,23.0,30.26,NW,308,9.0,22.0,58,0.00,,,0.02,,2013-04-23 21:12:00,
2013-04-23 16:21:00,36.0,22.0,30.26,NNW,344,7.0,13.0,57,0.00,,,0.02,,2013-04-23 21:21:00,
2013-04-23 16:33:00,35.0,20.0,30.25,North,355,9.0,15.0,54,0.00,,,0.02,,2013-04-23 21:33:00,
2013-04-23 16:43:00,35.0,20.0,30.25,North,355,9.0,15.0,54,0.00,,,0.02,,2013-04-23 21:43:00,
2013-04-23 16:52:00,35.0,22.0,30.25,NNW,338,7.0,14.0,58,0.00,,,0.02,,2013-04-23 21:52:00,
2013-04-23 17:03:00,35.0,21.0,30.25,NNE,30,5.0,14.0,57,0.00,,,0.01,,2013-04-23 22:03:00,
2013-04-23 17:12:00,35.0,21.0,30.25,NNE,30,5.0,14.0,57,0.00,,,0.01,,2013-04-23 22:12:00,
2013-04-23 17:22:00,35.0,21.0,30.24,NW,308,7.0,16.0,56,0.00,,,0.01,,2013-04-23 22:22:00,
2013-04-23 17:33:00,35.0,21.0,30.24,NNW,339,5.0,16.0,56,0.00,,,0.01,,2013-04-23 22:33:00,
2013-04-23 17:42:00,35.0,21.0,30.24,NNW,339,5.0,16.0,56,0.00,,,0.01,,2013-04-23 22:42:00,
2013-04-23 17:52:00,35.0,21.0,30.24,NNW,338,6.0,12.0,56,0.00,,,0.01,,2013-04-23 22:52:00,
2013-04-23 18:03:00,35.0,22.0,30.24,North,5,6.0,11.0,59,0.00,,,0.00,,2013-04-23 23:03:00,
2013-04-23 18:12:00,35.0,22.0,30.24,North,5,6.0,11.0,59,0.00,,,0.00,,2013-04-23 23:12:00,
2013-04-23 18:22:00,35.0,20.0,30.25,NW,306,8.0,14.0,53,0.00,,,0.00,,2013-04-23 23:22:00,
2013-04-23 18:32:00,34.0,20.0,30.25,NNE,13,5.0,12.0,55,0.00,,,0.00,,2013-04-23 23:32:00,
2013-04-23 18:42:00,34.0,20.0,30.25,NNE,13,5.0,12.0,55,0.00,,,0.00,,2013-04-23 23:42:00,
2013-04-23 18:52:00,35.0,22.0,30.25,NNE,12,5.0,10.0,58,0.00,,,0.00,,2013-04-23 23:52:00,
2013-04-23 19:01:00,35.0,21.0,30.25,NNW,337,5.0,11.0,57,0.00,,,0.00,,2013-04-24 00:01:00,
2013-04-23 19:11:00,35.0,21.0,30.25,NNW,337,5.0,11.0,57,0.00,,,0.00,,2013-04-24 00:11:00,
2013-04-23 19:22:00,35.0,20.0,30.25,NNW,329,6.0,12.0,55,0.00,,,0.00,,2013-04-24 00:22:00,
2013-04-23 19:32:00,35.0,21.0,30.25,North,360,6.0,11.0,56,0.00,,,0.00,,2013-04-24 00:32:00,
2013-04-23 19:41:00,35.0,21.0,30.25,North,360,6.0,11.0,56,0.00,,,0.00,,2013-04-24 00:41:00,
2013-04-23 19:52:00,34.0,21.0,30.25,North,355,5.0,10.0,58,0.00,,,0.00,,2013-04-24 00:52:00,
2013-04-23 20:01:00,34.0,22.0,30.25,NNW,327,3.0,10.0,60,0.00,,,0.00,,2013-04-24 01:01:00,
2013-04-23 20:11:00,34.0,22.0,30.25,NNW,327,3.0,10.0,60,0.00,,,0.00,,2013-04-24 01:11:00,
2013-04-23 20:21:00,33.0,21.0,30.25,NNW,345,2.0,10.0,61,0.00,,,0.00,,2013-04-24 01:21:00,
2013-04-23 20:32:00,33.0,23.0,30.26,NW,312,2.0,7.0,65,0.00,,,0.00,,2013-04-24 01:32:00,
2013-04-23 20:42:00,33.0,23.0,30.26,NW,312,2.0,7.0,65,0.00,,,0.00,,2013-04-24 01:42:00,
2013-04-23 20:52:00,32.0,22.0,30.26,NW,318,2.0,7.0,67,0.00,,,0.00,,2013-04-24 01:52:00,
2013-04-23 21:02:00,32.0,23.0,30.27,NNW,337,1.0,4.0,68,0.00,,,0.00,,2013-04-24 02:02:00,
2013-04-23 21:16:00,32.0,23.0,30.27,NNW,337,1.0,4.0,68,0.00,,,0.00,,2013-04-24 02:16:00,
2013-04-23 21:29:00,31.0,22.0,30.27,NNW,333,1.0,4.0,70,0.00,,,0.00,,2013-04-24 02:29:00,
2013-04-23 21:37:00,31.0,23.0,30.27,NNW,335,1.0,4.0,71,0.00,,,0.00,,2013-04-24 02:37:00,
2013-04-23 21:46:00,31.0,23.0,30.27,NNW,335,1.0,4.0,71,0.00,,,0.00,,2013-04-24 02:46:00,
2013-04-23 21:59:00,31.0,23.0,30.27,North,350,1.0,4.0,73,0.00,,,0.00,,2013-04-24 02:59:00,
2013-04-23 22:07:00,30.0,23.0,30.28,NW,324,0.0,3.0,74,0.00,,,0.00,,2013-04-24 03:07:00,
2013-04-23 22:28:00,30.0,23.0,30.28,NW,324,0.0,0.0,75,0.00,,,0.00,,2013-04-24 03:28:00,
2013-04-23 22:39:00,29.0,23.0,30.28,NW,324,0.0,0.0,77,0.00,,,0.00,,2013-04-24 03:39:00,
2013-04-23 22:49:00,29.0,23.0,30.28,NW,324,0.0,0.0,77,0.00,,,0.00,,2013-04-24 03:49:00,
2013-04-23 23:01:00,28.0,21.0,30.28,North,355,0.0,0.0,75,0.00,,,0.00,,2013-04-24 04:01:00,
2013-04-23 23:03:00,28.0,21.0,30.29,North,355,0.0,0.0,76,0.00,,,0.00,,2013-04-24 04:03:00,
2013-04-23 23:12:00,28.0,21.0,30.29,North,355,0.0,0.0,76,0.00,,,0.00,,2013-04-24 04:12:00,
2013-04-23 23:23:00,27.0,21.0,30.28,North,355,0.0,0.0,79,0.00,,,0.00,,2013-04-24 04:23:00,
2013-04-23 23:33:00,26.0,21.0,30.28,North,355,0.0,0.0,80,0.00,,,0.00,,2013-04-24 04:33:00,
2013-04-23 23:43:00,26.0,21.0,30.28,North,355,0.0,0.0,80,0.00,,,0.00,,2013-04-24 04:43:00,
2013-04-23 23:53:00,26.0,21.0,30.29,North,355,0.0,0.0,81,0.00,,,0.00,,2013-04-24 04:53:00,